Time;durP1;ratioP1;P1;durP2;ratioP2;P2;SDS_P1;SDS_P2;PMS_P1;PMS_P2;Temp;Humidity;BMP_temperature;BMP_pressure;BME280_temperature;BME280_humidity;BME280_pressure;Samples;Min_cycle;Max_cycle;Signal;HPM_P1;HPM_P2
2023/03/24 00:00:52;;;;;;;2.67;2.47;;;;;;;16.15;50.63;97089.00;8347700;28;20230;-70
2023/03/24 00:04:57;;;;;;;4.13;2.67;;;;;;;15.99;51.13;97083.34;8347714;28;20236;-70
2023/03/24 00:09:02;;;;;;;2.90;2.60;;;;;;;16.14;50.53;97089.94;8347859;28;20510;-70
2023/03/24 00:13:05;;;;;;;3.80;3.00;;;;;;;15.99;50.87;97080.75;8347662;28;20226;-70
2023/03/24 00:17:11;;;;;;;3.17;2.60;;;;;;;16.10;50.90;97083.31;8347365;28;20229;-70
2023/03/24 00:21:15;;;;;;;3.23;3.03;;;;;;;16.07;50.97;97078.38;8347608;28;20231;-68
2023/03/24 00:25:20;;;;;;;3.00;2.70;;;;;;;15.97;51.25;97080.03;8347293;28;20515;-69
2023/03/24 00:29:24;;;;;;;3.30;3.00;;;;;;;16.00;51.00;97074.59;8347148;28;20231;-70
2023/03/24 00:33:27;;;;;;;4.17;2.83;;;;;;;16.15;50.88;97062.91;8346899;28;20221;-70
2023/03/24 00:37:31;;;;;;;3.87;2.90;;;;;;;16.16;50.85;97063.72;8347071;28;20230;-70
2023/03/24 00:41:34;;;;;;;2.87;2.63;;;;;;;16.13;50.65;97072.63;8346981;28;20547;-70
2023/03/24 00:45:44;;;;;;;2.97;2.77;;;;;;;16.01;50.64;97076.22;8346608;28;20242;-71
2023/03/24 00:49:52;;;;;;;2.90;2.70;;;;;;;16.17;50.55;97073.22;8345925;28;20227;-70
2023/03/24 00:53:57;;;;;;;2.80;2.60;;;;;;;16.09;50.42;97075.59;8346376;28;20420;-70
2023/03/24 00:58:00;;;;;;;3.30;2.93;;;;;;;16.13;50.53;97067.41;8346268;28;20233;-70
2023/03/24 01:02:02;;;;;;;3.83;2.80;;;;;;;15.97;50.96;97060.00;8346247;28;20241;-71
2023/03/24 01:06:06;;;;;;;3.80;2.70;;;;;;;15.91;51.55;97057.03;8345990;28;20255;-70
2023/03/24 01:10:12;;;;;;;3.27;2.97;;;;;;;15.91;51.84;97041.38;8345441;28;20230;-70
2023/03/24 01:14:15;;;;;;;4.27;3.00;;;;;;;15.86;52.64;97036.53;8346009;28;20251;-68
2023/03/24 01:18:18;;;;;;;3.70;3.30;;;;;;;15.90;51.91;97022.28;8346040;28;20227;-68
2023/03/24 01:22:22;;;;;;;3.73;3.13;;;;;;;15.73;52.86;97036.69;8345405;28;20239;-68
2023/03/24 01:26:26;;;;;;;3.53;3.20;;;;;;;15.83;52.45;97037.59;8345693;28;20234;-68
2023/03/24 01:30:30;;;;;;;3.83;3.20;;;;;;;15.87;52.79;97056.47;8345652;28;20223;-69
2023/03/24 01:34:33;;;;;;;4.43;3.10;;;;;;;15.95;52.65;97058.44;8345309;28;20248;-68
2023/03/24 01:38:36;;;;;;;3.87;3.43;;;;;;;15.88;52.17;97052.91;8345663;28;20235;-68
2023/03/24 01:42:41;;;;;;;3.77;3.47;;;;;;;15.82;52.91;97043.78;8345581;28;20414;-68
2023/03/24 01:46:44;;;;;;;3.20;3.00;;;;;;;15.70;53.30;97033.47;8344953;28;20299;-68
2023/03/24 01:50:51;;;;;;;3.57;3.03;;;;;;;15.86;53.32;97031.31;8345253;28;20240;-69
2023/03/24 01:54:56;;;;;;;4.50;3.20;;;;;;;15.66;54.71;96996.34;8345417;28;20238;-68
2023/03/24 01:59:03;;;;;;;4.33;3.50;;;;;;;15.73;54.72;96999.28;8345282;28;20237;-68
2023/03/24 02:03:09;;;;;;;4.63;3.83;;;;;;;15.85;54.44;96992.28;8345113;28;20230;-68
2023/03/24 02:07:16;;;;;;;4.63;3.53;;;;;;;15.66;54.82;96983.28;8345009;28;20412;-68
2023/03/24 02:11:19;;;;;;;3.83;3.47;;;;;;;15.59;55.48;96980.34;8344987;28;20249;-67
2023/03/24 02:15:26;;;;;;;4.13;3.50;;;;;;;15.56;54.97;96964.09;8345052;28;20546;-67
2023/03/24 02:19:51;;;;;;;3.97;3.57;;;;;;;15.56;55.00;96967.53;8344848;28;20252;-68
2023/03/24 02:24:17;;;;;;;4.23;3.83;;;;;;;15.43;55.67;96962.47;8348890;28;20230;-68
2023/03/24 02:28:30;;;;;;;3.70;3.40;;;;;;;15.11;56.37;96932.91;8351028;28;20234;-67
2023/03/24 02:33:22;;;;;;;3.87;3.40;;;;;;;15.37;56.08;96951.72;8350705;28;20234;-68
2023/03/24 02:37:41;;;;;;;4.20;3.80;;;;;;;15.17;56.33;96930.66;8274854;28;20217;-68
2023/03/24 02:41:53;;;;;;;3.67;3.37;;;;;;;15.19;56.29;96941.81;8350352;28;20230;-68
2023/03/24 02:46:11;;;;;;;3.90;3.60;;;;;;;15.45;56.04;96928.44;8350433;28;20242;-69
2023/03/24 02:50:19;;;;;;;4.90;3.50;;;;;;;15.40;56.04;96921.00;8350629;28;20222;-69
2023/03/24 02:54:28;;;;;;;4.20;3.80;;;;;;;15.07;56.87;96913.25;8350505;28;20230;-69
2023/03/24 02:58:37;;;;;;;3.70;3.40;;;;;;;15.44;55.85;96929.41;8350333;28;20316;-69
2023/03/24 03:02:42;;;;;;;4.00;3.60;;;;;;;15.32;56.22;96912.94;8350135;28;20244;-68
2023/03/24 03:06:48;;;;;;;3.60;3.30;;;;;;;15.45;55.65;96899.75;8349778;28;20234;-68
2023/03/24 03:10:52;;;;;;;3.60;3.30;;;;;;;15.45;56.36;96902.34;8349837;28;20226;-69
2023/03/24 03:14:58;;;;;;;3.30;3.03;;;;;;;15.40;55.77;96891.44;8349668;28;20230;-68
2023/03/24 03:19:03;;;;;;;3.60;3.30;;;;;;;15.58;55.67;96895.19;8349298;28;20230;-68
2023/03/24 03:23:09;;;;;;;3.70;3.40;;;;;;;15.41;56.22;96898.34;8349376;28;20237;-69
2023/03/24 03:27:17;;;;;;;4.43;3.20;;;;;;;15.68;54.91;96890.03;8349520;28;20225;-68
2023/03/24 03:31:28;;;;;;;5.30;3.30;;;;;;;15.46;55.56;96888.38;8349514;28;20445;-69
2023/03/24 03:35:35;;;;;;;4.60;3.50;;;;;;;15.64;54.87;96870.38;8348939;28;20238;-69
2023/03/24 03:39:41;;;;;;;3.80;3.37;;;;;;;15.74;54.63;96881.72;8349011;28;20228;-69
2023/03/24 03:43:44;;;;;;;3.63;3.33;;;;;;;15.49;55.47;96882.88;8348590;28;20238;-69
2023/03/24 03:47:48;;;;;;;3.10;2.90;;;;;;;15.64;55.01;96883.41;8348642;28;20230;-68
2023/03/24 03:51:52;;;;;;;4.07;3.50;;;;;;;15.63;54.59;96877.38;8348665;28;20231;-69
2023/03/24 03:55:56;;;;;;;4.20;3.80;;;;;;;15.53;55.16;96884.28;8348467;28;20242;-69
2023/03/24 04:00:06;;;;;;;4.20;3.80;;;;;;;15.59;54.66;96870.75;8348514;28;20246;-69
2023/03/24 04:04:25;;;;;;;4.60;3.63;;;;;;;15.56;54.36;96889.25;8348177;28;20581;-68
2023/03/24 04:08:36;;;;;;;4.00;3.30;;;;;;;15.54;54.41;96891.16;8347945;28;20235;-69
2023/03/24 04:13:03;;;;;;;3.63;3.33;;;;;;;15.69;53.69;96883.03;8347861;28;20240;-68
2023/03/24 04:17:14;;;;;;;4.67;3.53;;;;;;;15.67;53.67;96875.34;8339447;28;20221;-69
2023/03/24 04:21:32;;;;;;;4.17;3.30;;;;;;;15.58;53.77;96870.88;8347798;28;20533;-69
2023/03/24 04:25:45;;;;;;;3.97;3.63;;;;;;;15.60;53.25;96868.97;8347218;28;20244;-69
2023/03/24 04:29:54;;;;;;;3.63;3.33;;;;;;;15.60;53.41;96861.97;8339644;28;20232;-68
2023/03/24 04:34:01;;;;;;;3.70;3.40;;;;;;;15.64;53.19;96852.09;8347149;28;20262;-68
2023/03/24 04:38:10;;;;;;;3.60;3.30;;;;;;;15.66;53.08;96862.41;8346957;28;20230;-68
2023/03/24 04:42:16;;;;;;;4.20;3.30;;;;;;;15.76;53.04;96872.00;8347102;28;20234;-69
2023/03/24 04:46:19;;;;;;;4.87;3.77;;;;;;;15.68;53.26;96861.31;8346086;28;20222;-68
2023/03/24 04:50:30;;;;;;;3.60;3.30;;;;;;;15.84;52.18;96858.31;8346723;28;20227;-68
2023/03/24 04:54:34;;;;;;;3.47;3.17;;;;;;;15.70;52.22;96851.56;8346712;28;20389;-69
2023/03/24 04:58:37;;;;;;;3.80;3.50;;;;;;;15.60;52.73;96856.72;8346419;28;20416;-68
2023/03/24 05:02:40;;;;;;;3.60;3.30;;;;;;;15.71;52.85;96842.81;8346551;28;20240;-69
2023/03/24 05:06:42;;;;;;;4.73;3.53;;;;;;;15.57;53.09;96825.69;8345932;28;20558;-68
2023/03/24 05:10:46;;;;;;;4.00;3.60;;;;;;;15.73;52.48;96834.84;8346098;28;20225;-68
2023/03/24 05:14:49;;;;;;;4.57;3.13;;;;;;;15.58;53.06;96827.34;8345894;28;20418;-69
2023/03/24 05:18:52;;;;;;;4.20;3.37;;;;;;;15.74;52.45;96828.69;8345996;28;20536;-69
2023/03/24 05:22:55;;;;;;;3.53;3.23;;;;;;;15.67;52.60;96841.41;8345770;28;20234;-69
2023/03/24 05:26:59;;;;;;;3.67;3.30;;;;;;;15.72;52.18;96835.81;8345532;28;20230;-68
2023/03/24 05:31:02;;;;;;;3.47;3.17;;;;;;;15.80;52.19;96855.13;8345462;28;20233;-68
2023/03/24 05:35:06;;;;;;;3.20;2.90;;;;;;;15.73;52.12;96861.81;8345729;28;20429;-69
2023/03/24 05:39:08;;;;;;;3.80;3.50;;;;;;;15.67;51.75;96864.91;8345836;28;20234;-68
2023/03/24 05:43:12;;;;;;;5.10;3.10;;;;;;;15.74;51.85;96867.84;8345386;28;20234;-69
2023/03/24 05:47:15;;;;;;;3.60;3.30;;;;;;;15.79;51.69;96865.69;8345456;28;20222;-69
2023/03/24 05:51:18;;;;;;;3.67;3.30;;;;;;;15.79;51.81;96876.13;8345702;28;20233;-68
2023/03/24 05:55:21;;;;;;;3.90;3.60;;;;;;;15.88;51.32;96882.34;8345461;28;20584;-69
2023/03/24 05:59:26;;;;;;;3.20;2.90;;;;;;;15.95;51.17;96886.13;8352022;28;20230;-69
2023/03/24 06:03:37;;;;;;;2.93;2.73;;;;;;;15.83;51.74;96890.59;8352151;28;20233;-68
2023/03/24 06:07:41;;;;;;;3.90;3.13;;;;;;;15.82;51.71;96887.16;8351856;28;20336;-68
2023/03/24 06:11:44;;;;;;;3.13;2.80;;;;;;;15.93;51.20;96896.69;8351473;28;20246;-68
2023/03/24 06:15:48;;;;;;;3.70;3.30;;;;;;;15.71;51.68;96897.63;8351243;28;20236;-68
2023/03/24 06:19:51;;;;;;;3.50;3.20;;;;;;;15.71;51.98;96892.41;8351915;28;20233;-68
2023/03/24 06:23:56;;;;;;;3.47;3.17;;;;;;;15.90;51.55;96906.59;8351383;28;20235;-69
2023/03/24 06:28:02;;;;;;;3.47;3.17;;;;;;;15.90;51.54;96914.41;8351241;28;20535;-68
2023/03/24 06:32:07;;;;;;;3.40;3.10;;;;;;;15.97;51.50;96912.94;8351303;28;20447;-69
2023/03/24 06:36:14;;;;;;;3.83;3.00;;;;;;;15.92;51.80;96925.56;8351056;28;20236;-69
2023/03/24 06:40:22;;;;;;;3.60;3.30;;;;;;;15.96;51.80;96933.00;8351219;28;20250;-69
2023/03/24 06:44:25;;;;;;;3.10;2.90;;;;;;;16.06;51.61;96946.13;8350700;28;20230;-69
2023/03/24 06:48:33;;;;;;;4.03;3.10;;;;;;;15.98;52.30;96957.19;8350320;28;20301;-69
2023/03/24 06:52:36;;;;;;;3.20;2.87;;;;;;;15.67;55.33;96952.78;8350497;28;20523;-69
2023/03/24 06:56:41;;;;;;;3.87;2.47;;;;;;;15.78;55.86;96971.03;8350375;28;20225;-69
2023/03/24 07:00:45;;;;;;;2.30;2.20;;;;;;;15.88;56.15;96977.19;8349733;28;20234;-69
2023/03/24 07:04:52;;;;;;;2.30;2.20;;;;;;;15.98;56.95;96972.03;8350052;28;20239;-69
2023/03/24 07:08:57;;;;;;;2.40;2.20;;;;;;;15.88;57.65;96978.97;8348937;28;20234;-68
2023/03/24 07:13:01;;;;;;;2.43;2.00;;;;;;;15.73;57.86;96979.25;8349652;28;20479;-69
2023/03/24 07:17:04;;;;;;;2.80;1.87;;;;;;;15.89;57.88;96975.41;8349643;28;20237;-69
2023/03/24 07:21:08;;;;;;;1.90;1.80;;;;;;;15.81;58.18;96976.84;8349745;28;20222;-69
2023/03/24 07:25:13;;;;;;;1.80;1.70;;;;;;;15.87;58.08;96966.88;8349349;28;20244;-69
2023/03/24 07:29:15;;;;;;;2.50;1.47;;;;;;;15.91;57.70;96973.50;8349262;28;20227;-69
2023/03/24 07:33:18;;;;;;;2.30;1.57;;;;;;;15.85;58.18;96981.84;8348828;28;20246;-69
2023/03/24 07:37:22;;;;;;;1.50;1.40;;;;;;;15.79;58.24;96983.16;8349138;28;20228;-69
2023/03/24 07:41:26;;;;;;;1.43;1.30;;;;;;;15.85;58.43;96981.84;8349044;28;20229;-69
2023/03/24 07:45:29;;;;;;;1.57;1.40;;;;;;;15.73;58.51;96974.03;8348902;28;20232;-69
2023/03/24 07:49:32;;;;;;;1.53;1.30;;;;;;;15.75;58.34;96972.13;8349048;28;20586;-69
2023/03/24 07:53:37;;;;;;;1.40;1.30;;;;;;;15.99;57.42;96964.09;8348824;28;20523;-69
2023/03/24 07:57:41;;;;;;;1.53;1.43;;;;;;;16.17;56.91;96972.19;8348694;28;20233;-70
2023/03/24 08:01:44;;;;;;;1.63;1.30;;;;;;;16.16;57.12;96970.53;8347954;28;20306;-69
2023/03/24 08:05:50;;;;;;;1.43;1.30;;;;;;;16.03;57.76;96983.78;8348082;28;20235;-69
2023/03/24 08:09:54;;;;;;;2.20;2.00;;;;;;;16.24;56.90;96977.75;8348308;28;20227;-69
2023/03/24 08:13:57;;;;;;;1.60;1.50;;;;;;;16.15;57.55;96987.16;8347913;28;20250;-69
2023/03/24 08:18:00;;;;;;;2.60;2.40;;;;;;;16.07;57.38;96992.19;8347919;28;20227;-70
2023/03/24 08:22:03;;;;;;;2.60;2.40;;;;;;;16.03;57.90;96985.56;8348112;28;20218;-70
2023/03/24 08:26:09;;;;;;;1.63;1.37;;;;;;;15.95;57.58;96993.16;8347897;28;20426;-69
2023/03/24 08:30:15;;;;;;;2.70;2.50;;;;;;;16.05;57.59;96995.84;8347712;28;20243;-69
2023/03/24 08:34:18;;;;;;;2.47;2.23;;;;;;;16.04;58.12;96997.66;8347398;28;20234;-69
2023/03/24 08:38:22;;;;;;;2.03;1.93;;;;;;;16.07;58.33;96997.41;8347499;28;20227;-69
2023/03/24 08:42:26;;;;;;;1.60;1.50;;;;;;;16.16;57.68;96988.81;8346662;28;20230;-69
2023/03/24 08:46:30;;;;;;;1.97;1.40;;;;;;;16.03;57.80;96996.81;8347135;28;20418;-69
2023/03/24 08:50:34;;;;;;;1.63;1.53;;;;;;;16.19;57.76;97003.41;8347197;28;20226;-69
2023/03/24 08:54:37;;;;;;;1.40;1.30;;;;;;;16.23;57.44;97008.22;8347016;28;20429;-69
2023/03/24 08:58:45;;;;;;;1.40;1.30;;;;;;;16.23;58.34;97010.03;8346771;28;20234;-69
2023/03/24 09:02:50;;;;;;;1.80;1.60;;;;;;;16.03;58.68;96993.41;8346171;28;20226;-69
2023/03/24 09:06:58;;;;;;;1.60;1.50;;;;;;;15.93;59.88;97003.72;8346665;28;20551;-69
2023/03/24 09:11:04;;;;;;;1.83;1.73;;;;;;;16.06;60.03;97006.19;8346505;28;20263;-69
2023/03/24 09:15:10;;;;;;;1.80;1.70;;;;;;;16.14;60.56;97008.16;8346390;28;20425;-69
2023/03/24 09:19:14;;;;;;;1.93;1.80;;;;;;;16.07;61.39;97007.00;8346197;28;20240;-69
2023/03/24 09:23:17;;;;;;;2.47;1.90;;;;;;;15.60;63.23;97000.25;8346144;28;20231;-69
2023/03/24 09:27:22;;;;;;;2.10;1.90;;;;;;;15.63;63.37;97002.63;8346037;28;20237;-69
2023/03/24 09:31:26;;;;;;;2.47;1.90;;;;;;;15.61;64.34;96999.31;8345570;28;20227;-69
2023/03/24 09:35:29;;;;;;;1.93;1.80;;;;;;;15.71;64.32;96996.81;8345962;28;20225;-69
2023/03/24 09:39:37;;;;;;;1.70;1.60;;;;;;;15.90;63.88;96997.97;8345785;28;20225;-69
2023/03/24 09:43:42;;;;;;;2.17;1.77;;;;;;;15.60;64.94;96989.00;8345645;28;20242;-69
2023/03/24 09:47:49;;;;;;;2.00;1.90;;;;;;;15.96;63.37;96997.47;8337584;28;20226;-69
2023/03/24 09:51:55;;;;;;;3.60;1.80;;;;;;;16.10;63.08;96988.47;8345675;28;20235;-69
2023/03/24 09:56:02;;;;;;;2.60;2.03;;;;;;;16.35;62.54;96985.47;8345382;28;20342;-69
2023/03/24 10:00:26;;;;;;;2.97;1.60;;;;;;;16.21;64.51;96993.66;8345348;28;20231;-69
2023/03/24 10:04:34;;;;;;;2.43;2.27;;;;;;;15.74;65.29;96995.75;8341254;28;20226;-70
2023/03/24 10:08:41;;;;;;;2.47;2.03;;;;;;;15.98;64.65;97000.75;8344859;28;20237;-69
2023/03/24 10:12:48;;;;;;;2.10;2.00;;;;;;;16.10;64.11;96996.31;8344291;28;20230;-69
2023/03/24 10:16:55;;;;;;;2.50;2.30;;;;;;;15.97;64.16;96997.34;8344550;28;20426;-69
2023/03/24 10:21:03;;;;;;;1.83;1.73;;;;;;;16.09;63.42;96995.50;8345146;28;20531;-69
2023/03/24 10:25:13;;;;;;;2.57;1.97;;;;;;;16.68;61.61;96990.63;8344869;28;20235;-69
2023/03/24 10:29:27;;;;;;;1.60;1.50;;;;;;;16.43;61.76;96982.25;8344689;28;20228;-69
2023/03/24 10:33:30;;;;;;;2.50;2.07;;;;;;;16.52;61.77;96983.25;8344894;28;20230;-69
2023/03/24 10:37:35;;;;;;;2.10;1.90;;;;;;;16.88;60.61;97000.25;8344547;28;20236;-70
2023/03/24 10:41:38;;;;;;;1.70;1.60;;;;;;;16.64;60.36;96994.44;8344913;28;20229;-69
2023/03/24 10:45:43;;;;;;;1.60;1.50;;;;;;;16.71;59.84;96992.97;8349851;28;20240;-69
2023/03/24 10:49:53;;;;;;;1.83;1.73;;;;;;;16.41;60.71;96999.81;8350256;28;20263;-69
2023/03/24 10:54:10;;;;;;;2.17;1.80;;;;;;;16.72;59.81;97000.69;8350424;28;20236;-69
2023/03/24 10:58:19;;;;;;;2.90;2.70;;;;;;;16.67;60.24;97009.88;8350204;28;20279;-69
2023/03/24 11:02:23;;;;;;;1.90;1.50;;;;;;;16.55;60.04;97009.97;8350174;28;20228;-68
2023/03/24 11:06:27;;;;;;;2.50;1.50;;;;;;;16.35;60.74;97003.75;8349960;28;20229;-69
2023/03/24 11:10:31;;;;;;;1.30;1.20;;;;;;;16.63;59.39;96990.19;8349969;28;20232;-69
2023/03/24 11:14:34;;;;;;;1.37;1.27;;;;;;;16.85;59.17;97002.28;8349957;28;20521;-68
2023/03/24 11:18:37;;;;;;;2.33;1.40;;;;;;;16.59;59.81;96997.47;8349419;28;20328;-68
2023/03/24 11:22:40;;;;;;;1.30;1.20;;;;;;;16.61;59.62;96990.31;8348685;28;20429;-70
2023/03/24 11:26:58;;;;;;;1.50;1.40;;;;;;;16.76;59.14;96990.81;8348867;28;20232;-68
2023/03/24 11:31:06;;;;;;;1.30;1.20;;;;;;;16.84;58.59;96983.16;8348989;28;20245;-68
2023/03/24 11:35:16;;;;;;;1.50;1.40;;;;;;;16.63;59.10;96977.94;8349496;28;20418;-67
2023/03/24 11:39:22;;;;;;;1.53;1.20;;;;;;;16.79;58.53;96987.91;8349099;28;20240;-69
2023/03/24 11:43:27;;;;;;;1.47;1.40;;;;;;;16.92;59.10;96978.09;8348943;28;20406;-69
2023/03/24 11:47:31;;;;;;;1.90;1.80;;;;;;;16.99;58.34;96949.66;8348393;28;20556;-69
2023/03/24 11:51:36;;;;;;;1.60;1.10;;;;;;;17.17;58.10;96970.75;8348706;28;20539;-69
2023/03/24 11:55:46;;;;;;;1.30;1.20;;;;;;;17.26;57.89;96980.41;8348167;28;20544;-69
2023/03/24 11:59:56;;;;;;;1.53;1.30;;;;;;;17.25;57.70;96967.47;8347774;28;20240;-69
2023/03/24 12:04:07;;;;;;;1.83;1.40;;;;;;;17.03;58.23;96953.66;8348498;28;20460;-69
2023/03/24 12:08:28;;;;;;;2.50;1.30;;;;;;;16.93;58.15;96955.41;8348385;28;20239;-69
2023/03/24 12:12:37;;;;;;;2.43;1.30;;;;;;;17.05;57.71;96953.53;8347922;28;20566;-69
2023/03/24 12:16:49;;;;;;;1.20;1.20;;;;;;;17.08;57.53;96946.25;8347701;28;20241;-69
2023/03/24 12:20:57;;;;;;;3.03;1.23;;;;;;;17.32;56.95;96942.44;8347407;28;20229;-69
2023/03/24 12:25:14;;;;;;;1.10;1.10;;;;;;;17.05;55.99;96936.03;8347454;28;20255;-69
2023/03/24 12:29:26;;;;;;;1.10;1.10;;;;;;;17.09;54.66;96933.97;8347589;28;20244;-69
2023/03/24 12:33:38;;;;;;;1.00;1.00;;;;;;;17.26;54.40;96922.03;8347640;28;20230;-69
2023/03/24 12:37:49;;;;;;;1.80;1.10;;;;;;;17.26;54.52;96920.25;8347344;28;20233;-69
2023/03/24 12:42:03;;;;;;;1.47;1.30;;;;;;;17.00;56.49;96917.28;8346982;28;20218;-69
2023/03/24 12:46:28;;;;;;;1.50;1.03;;;;;;;17.10;57.99;96930.41;8347281;28;20476;-69
2023/03/24 12:50:59;;;;;;;2.10;1.40;;;;;;;16.81;61.05;96952.00;8346719;28;20232;-70
2023/03/24 12:55:05;;;;;;;1.90;1.60;;;;;;;16.08;66.02;96982.56;8347194;28;20260;-69
2023/03/24 12:59:12;;;;;;;1.80;1.17;;;;;;;15.50;66.20;96975.00;8346993;28;20240;-69
2023/03/24 13:03:19;;;;;;;2.43;1.30;;;;;;;15.54;66.57;96942.53;8347021;28;20240;-69
2023/03/24 13:07:27;;;;;;;3.53;1.20;;;;;;;15.44;67.42;96965.94;8345883;28;20431;-70
2023/03/24 13:11:36;;;;;;;1.27;0.80;;;;;;;15.76;66.84;96946.84;8346736;28;20225;-69
2023/03/24 13:15:40;;;;;;;1.17;1.07;;;;;;;16.06;67.24;96953.13;8346554;28;20242;-69
2023/03/24 13:19:42;;;;;;;1.80;0.90;;;;;;;16.14;67.78;96958.53;8345900;28;20453;-69
2023/03/24 13:23:53;;;;;;;1.30;1.00;;;;;;;16.17;66.59;96956.50;8346023;28;20283;-69
2023/03/24 13:28:03;;;;;;;1.47;1.10;;;;;;;15.94;67.34;96950.56;8346064;28;20235;-69
2023/03/24 13:32:11;;;;;;;1.20;1.10;;;;;;;16.04;65.51;96940.19;8346258;28;20612;-68
2023/03/24 13:36:30;;;;;;;1.07;1.07;;;;;;;16.39;65.19;96946.88;8345922;28;20240;-68
2023/03/24 13:40:38;;;;;;;1.67;1.30;;;;;;;16.13;65.81;96947.28;8346225;28;20224;-68
2023/03/24 13:44:45;;;;;;;1.50;1.40;;;;;;;15.88;65.83;96966.75;8345637;28;20424;-68
2023/03/24 13:48:51;;;;;;;1.13;1.10;;;;;;;16.06;64.97;96967.00;8345838;28;20245;-69
2023/03/24 13:52:54;;;;;;;3.80;1.43;;;;;;;16.04;65.42;96968.91;8345990;28;20427;-71
2023/03/24 13:57:04;;;;;;;1.83;1.40;;;;;;;16.13;64.85;96976.00;8345811;28;20242;-70
2023/03/24 14:01:19;;;;;;;1.63;1.37;;;;;;;16.14;63.95;96969.00;8345651;28;20521;-70
2023/03/24 14:05:42;;;;;;;1.40;1.30;;;;;;;16.09;63.84;96950.25;8345784;28;20511;-69
2023/03/24 14:09:58;;;;;;;1.53;1.40;;;;;;;15.99;64.17;96991.97;8345448;28;20427;-70
2023/03/24 14:14:06;;;;;;;1.70;1.60;;;;;;;15.85;63.93;96964.38;8346059;28;20454;-70
2023/03/24 14:18:18;;;;;;;1.40;1.27;;;;;;;15.86;62.21;96994.75;8347876;28;20535;-70
2023/03/24 14:22:22;;;;;;;1.60;1.47;;;;;;;15.73;62.30;96981.03;8352004;28;20522;-70
2023/03/24 14:26:32;;;;;;;1.83;1.00;;;;;;;16.01;61.68;96977.84;8351926;28;20244;-73
2023/03/24 14:30:39;;;;;;;0.77;0.77;;;;;;;16.08;60.94;96983.38;8351679;28;20228;-70
2023/03/24 14:34:50;;;;;;;1.20;1.10;;;;;;;16.32;60.69;96975.31;8351191;28;20232;-69
2023/03/24 14:38:53;;;;;;;0.70;0.70;;;;;;;16.38;59.12;96974.78;8350817;28;20531;-71
2023/03/24 14:43:04;;;;;;;1.13;0.83;;;;;;;16.27;58.05;96977.47;8351255;28;20230;-70
2023/03/24 14:47:09;;;;;;;1.20;1.10;;;;;;;15.98;57.02;96983.31;8351436;28;20294;-70
2023/03/24 14:51:35;;;;;;;1.20;1.10;;;;;;;15.91;56.85;96994.38;8351315;28;20419;-70
2023/03/24 14:55:39;;;;;;;1.37;0.80;;;;;;;15.88;58.06;97005.06;8351105;28;20528;-70
2023/03/24 14:59:46;;;;;;;1.43;0.80;;;;;;;15.81;58.30;97000.34;8350508;28;20223;-69
2023/03/24 15:03:57;;;;;;;1.17;0.80;;;;;;;15.85;58.56;96997.50;8350682;28;20228;-70
2023/03/24 15:08:03;;;;;;;1.97;0.93;;;;;;;15.71;58.01;96994.19;8350824;28;20255;-70
2023/03/24 15:12:06;;;;;;;0.87;0.87;;;;;;;15.54;58.30;97013.00;8350397;28;20232;-70
2023/03/24 15:16:18;;;;;;;3.20;1.30;;;;;;;15.51;57.60;97001.00;8349867;28;20608;-69
2023/03/24 15:20:25;;;;;;;1.60;0.90;;;;;;;15.50;56.63;97003.72;8350032;28;20343;-69
2023/03/24 15:24:30;;;;;;;1.53;0.80;;;;;;;15.69;55.73;97001.31;8349841;28;20227;-69
2023/03/24 15:28:33;;;;;;;1.00;0.90;;;;;;;15.30;55.33;96995.69;8349087;28;20221;-69
2023/03/24 15:32:38;;;;;;;1.93;0.90;;;;;;;15.36;54.75;96989.16;8349622;28;20264;-69
2023/03/24 15:36:49;;;;;;;1.60;1.00;;;;;;;15.34;54.36;96999.72;8349402;28;20234;-68
2023/03/24 15:40:54;;;;;;;1.70;1.10;;;;;;;15.65;53.96;96994.69;8348991;28;20226;-68
2023/03/24 15:45:08;;;;;;;1.77;0.90;;;;;;;15.32;53.61;96946.03;8349039;28;20233;-68
2023/03/24 15:49:20;;;;;;;1.30;0.90;;;;;;;15.71;54.89;96990.75;8349281;28;20226;-69
2023/03/24 15:53:27;;;;;;;0.93;0.90;;;;;;;15.61;53.63;96978.44;8348882;28;20231;-69
2023/03/24 15:57:37;;;;;;;2.30;1.40;;;;;;;15.51;54.09;96987.94;8348811;28;20580;-69
2023/03/24 16:01:42;;;;;;;0.97;0.87;;;;;;;15.49;52.63;96982.03;8348925;28;20247;-69
2023/03/24 16:05:50;;;;;;;2.73;1.10;;;;;;;15.43;53.22;96991.16;8348064;28;20246;-68
2023/03/24 16:10:03;;;;;;;4.30;3.90;;;;;;;15.35;53.01;96988.34;8348677;28;20414;-69
2023/03/24 16:14:17;;;;;;;3.23;1.30;;;;;;;15.10;52.38;96991.22;8348488;28;20410;-69
2023/03/24 16:18:23;;;;;;;2.33;1.23;;;;;;;15.20;53.09;96997.38;8348225;28;20232;-69
2023/03/24 16:22:26;;;;;;;1.50;1.00;;;;;;;15.20;53.21;96998.22;8347909;28;20232;-69
2023/03/24 16:26:32;;;;;;;2.90;1.10;;;;;;;14.55;53.19;96945.00;8347748;28;20233;-70
2023/03/24 16:30:39;;;;;;;2.23;1.30;;;;;;;15.22;53.09;96982.44;8347973;28;20226;-69
2023/03/24 16:34:42;;;;;;;3.50;1.10;;;;;;;15.15;53.45;96983.88;8339428;28;20505;-68
2023/03/24 16:38:45;;;;;;;3.17;1.37;;;;;;;15.27;53.07;96982.06;8347358;28;20231;-68
2023/03/24 16:42:50;;;;;;;2.83;1.50;;;;;;;15.18;53.38;96974.03;8346467;28;20237;-69
2023/03/24 16:46:53;;;;;;;4.10;1.50;;;;;;;15.19;53.58;96982.66;8347319;28;20233;-68
2023/03/24 16:50:57;;;;;;;2.00;1.43;;;;;;;15.20;53.79;96977.34;8347123;28;20297;-68
2023/03/24 16:54:59;;;;;;;2.80;1.73;;;;;;;15.16;53.87;96988.97;8346699;28;20233;-70
2023/03/24 16:59:04;;;;;;;3.50;1.47;;;;;;;15.18;53.19;96981.03;8346606;28;20226;-67
2023/03/24 17:03:07;;;;;;;3.43;1.67;;;;;;;15.12;53.75;96995.38;8346665;28;20222;-68
2023/03/24 17:07:10;;;;;;;2.50;1.40;;;;;;;14.97;53.69;96992.19;8346421;28;20235;-67
2023/03/24 17:11:13;;;;;;;2.00;1.30;;;;;;;15.02;54.14;96986.59;8346323;28;20233;-68
2023/03/24 17:15:21;;;;;;;2.37;1.50;;;;;;;15.09;53.58;96987.78;8346523;28;20232;-69
2023/03/24 17:19:24;;;;;;;2.70;1.20;;;;;;;15.07;53.57;96981.03;8346267;28;20230;-68
2023/03/24 17:23:29;;;;;;;2.07;1.40;;;;;;;15.08;53.94;96987.91;8345678;28;20227;-68
2023/03/24 17:27:31;;;;;;;1.57;1.40;;;;;;;15.02;54.52;96991.81;8345861;28;20225;-68
2023/03/24 17:31:36;;;;;;;3.10;1.40;;;;;;;15.00;54.32;96993.72;8346420;28;20230;-68
2023/03/24 17:35:39;;;;;;;4.60;2.00;;;;;;;14.85;55.10;96990.53;8346110;28;20231;-68
2023/03/24 17:39:42;;;;;;;4.20;2.77;;;;;;;14.93;55.19;96997.75;8345213;28;20230;-68
2023/03/24 17:43:46;;;;;;;3.83;2.00;;;;;;;14.78;54.80;96984.94;8346102;28;20229;-68
2023/03/24 17:47:50;;;;;;;2.67;1.40;;;;;;;14.81;54.92;97005.59;8346181;28;20434;-69
2023/03/24 17:51:52;;;;;;;2.60;1.40;;;;;;;14.43;55.99;97005.84;8346731;28;20230;-70
2023/03/24 17:55:57;;;;;;;3.23;1.83;;;;;;;14.72;55.06;96993.25;8352481;28;20344;-68
2023/03/24 18:00:00;;;;;;;4.00;1.90;;;;;;;14.78;54.72;97000.59;8352423;28;20240;-68
2023/03/24 18:04:04;;;;;;;4.03;1.90;;;;;;;14.75;54.52;97006.03;8351572;28;20418;-67
2023/03/24 18:08:07;;;;;;;5.43;1.73;;;;;;;14.78;54.74;97010.19;8352317;28;20239;-67
2023/03/24 18:12:09;;;;;;;3.93;2.60;;;;;;;14.85;54.50;97008.78;8352291;28;20514;-68
2023/03/24 18:16:14;;;;;;;4.17;2.17;;;;;;;14.72;54.62;97003.69;8352238;28;20226;-68
2023/03/24 18:20:26;;;;;;;3.20;2.00;;;;;;;14.63;54.46;97018.22;8352084;28;20244;-68
2023/03/24 18:24:29;;;;;;;4.10;2.03;;;;;;;14.56;54.53;97023.97;8351113;28;20560;-69
2023/03/24 18:28:32;;;;;;;3.47;1.73;;;;;;;14.73;54.29;97017.53;8351477;28;20228;-69
2023/03/24 18:32:37;;;;;;;5.37;2.30;;;;;;;14.64;54.68;97022.50;8351613;28;20221;-69
2023/03/24 18:36:42;;;;;;;3.23;2.03;;;;;;;14.63;54.17;97028.66;8351186;28;20226;-68
2023/03/24 18:40:45;;;;;;;6.20;2.00;;;;;;;14.56;53.91;97018.78;8350877;28;20226;-69
2023/03/24 18:44:50;;;;;;;4.37;1.87;;;;;;;14.59;54.26;97018.59;8351609;28;20540;-68
2023/03/24 18:48:53;;;;;;;3.70;1.87;;;;;;;14.48;54.56;97017.56;8351121;28;20257;-68
2023/03/24 18:52:57;;;;;;;3.67;2.00;;;;;;;14.53;54.48;97032.03;8350703;28;20418;-69
2023/03/24 18:57:00;;;;;;;3.27;1.47;;;;;;;14.58;54.69;97035.16;8350570;28;20228;-69
2023/03/24 19:01:05;;;;;;;3.67;1.70;;;;;;;14.38;54.90;97029.63;8350955;28;20420;-69
2023/03/24 19:05:09;;;;;;;2.97;1.40;;;;;;;14.48;54.87;97046.22;8349793;28;20259;-68
2023/03/24 19:09:18;;;;;;;3.43;1.77;;;;;;;14.36;55.58;97043.72;8350495;28;20536;-69
2023/03/24 19:13:21;;;;;;;3.03;1.33;;;;;;;14.28;56.07;97039.09;8350478;28;20489;-69
2023/03/24 19:17:25;;;;;;;3.43;1.60;;;;;;;14.36;55.80;97041.94;8350435;28;20540;-68
2023/03/24 19:21:29;;;;;;;3.20;1.60;;;;;;;14.08;57.06;97038.75;8350154;28;20428;-68